Hestrud (Nord, France) - 208 m
Donnes mto: Actuelle mercredi, 24/05/2017 23:12
Date Horaire Temp Out Temp. E. min Temp. E. max Temp. Sol 1 Hum Out Hum. Sol 1 Press Rain Wind Dir Dir Solar Ev.Tr. UV Hi Solar Rad Dew Point Windchill Wind (Gust)
24/05/2017 23:12 15,1 C 15,1 C 15,2 C 13,3 C 78 % 200 cb 1024,4 hPa 0,0 mm 0,0 km/h (0 Bft) N 0 0 min 0,025 mm 0,0 UV-I 0 W/m 11,3 C 15,1 C 0,0 km/h (0 Bft)
24/05/2017 22:12 17,3 C 17,3 C 17,3 C 15,0 C 70 % 200 cb 1024,0 hPa 0,0 mm 1,6 km/h (1 Bft) N 360 0 min 0,025 mm 0,0 UV-I 0 W/m 11,8 C 17,3 C 3,2 km/h (1 Bft)
24/05/2017 21:12 19,2 C 19,2 C 19,3 C 18,3 C 61 % 200 cb 1023,6 hPa 0,0 mm 3,2 km/h (1 Bft) N 360 0 min 0,102 mm 0,0 UV-I 16 W/m 11,5 C 19,2 C 6,4 km/h (2 Bft)
24/05/2017 20:12 20,9 C 20,9 C 21,0 C 20,0 C 58 % 200 cb 1023,4 hPa 0,0 mm 8,0 km/h (2 Bft) N-NE 22 44 min 0,152 mm 0,0 UV-I 105 W/m 12,3 C 20,3 C 11,3 km/h (2 Bft)
24/05/2017 19:12 21,4 C 21,4 C 21,4 C 21,7 C 68 % 200 cb 1023,3 hPa 0,0 mm 4,8 km/h (1 Bft) N-NE 22 35 min 0,127 mm 0,6 UV-I 149 W/m 15,2 C 21,4 C 8,0 km/h (2 Bft)
24/05/2017 18:12 22,0 C 22,0 C 22,1 C 21,7 C 65 % 200 cb 1023,5 hPa 0,0 mm 3,2 km/h (1 Bft) N-NO 337 45 min 0,254 mm 1,1 UV-I 125 W/m 15,1 C 22,0 C 6,4 km/h (2 Bft)
24/05/2017 17:12 22,9 C 22,9 C 22,9 C 23,3 C 62 % 200 cb 1023,8 hPa 0,0 mm 6,4 km/h (2 Bft) NO 315 60 min 0,406 mm 1,7 UV-I 251 W/m 15,2 C 22,9 C 8,0 km/h (2 Bft)
24/05/2017 16:12 22,9 C 22,9 C 22,9 C 24,4 C 59 % 200 cb 1024,0 hPa 0,0 mm 6,4 km/h (2 Bft) N-NE 22 60 min 0,406 mm 3,1 UV-I 733 W/m 14,5 C 22,9 C 19,3 km/h (3 Bft)
24/05/2017 15:12 22,3 C 22,3 C 22,3 C 23,3 C 58 % 200 cb 1024,3 hPa 0,0 mm 3,2 km/h (1 Bft) N 360 60 min 0,330 mm 3,0 UV-I 327 W/m 13,6 C 22,3 C 4,8 km/h (1 Bft)
24/05/2017 14:12 21,7 C 21,7 C 21,7 C 22,2 C 62 % 200 cb 1024,5 hPa 0,0 mm 8,0 km/h (2 Bft) NO 315 60 min 0,406 mm 3,0 UV-I 262 W/m 14,1 C 21,1 C 9,7 km/h (2 Bft)
24/05/2017 13:12 21,2 C 21,2 C 21,3 C 22,2 C 68 % 200 cb 1024,7 hPa 0,0 mm 3,2 km/h (1 Bft) NO 315 60 min 0,406 mm 4,0 UV-I 909 W/m 15,1 C 21,2 C 6,4 km/h (2 Bft)
24/05/2017 12:12 20,3 C 20,3 C 20,4 C 21,7 C 75 % 200 cb 1025,1 hPa 0,0 mm 6,4 km/h (2 Bft) N-NO 337 60 min 0,330 mm 2,8 UV-I 271 W/m 15,7 C 20,3 C 11,3 km/h (2 Bft)
24/05/2017 11:12 19,3 C 19,2 C 19,3 C 20,0 C 81 % 200 cb 1025,2 hPa 0,0 mm 6,4 km/h (2 Bft) O 270 60 min 0,305 mm 3,4 UV-I 316 W/m 16,0 C 19,3 C 9,7 km/h (2 Bft)
24/05/2017 10:12 15,7 C 15,7 C 15,7 C 17,8 C 95 % 200 cb 1025,1 hPa 0,0 mm 4,8 km/h (1 Bft) SO 225 55 min 0,102 mm 2,8 UV-I 540 W/m 14,9 C 15,7 C 9,7 km/h (2 Bft)
24/05/2017 09:12 13,6 C 13,6 C 13,6 C 14,4 C 98 % 200 cb 1025,1 hPa 0,0 mm 8,0 km/h (2 Bft) O-SO 247 4 min 0,051 mm 0,9 UV-I 151 W/m 13,3 C 12,6 C 9,7 km/h (2 Bft)
24/05/2017 08:12 12,9 C 12,8 C 12,9 C 13,3 C 98 % 200 cb 1024,6 hPa 0,0 mm 4,8 km/h (1 Bft) SO 225 0 min 0,025 mm 0,5 UV-I 127 W/m 12,6 C 12,9 C 6,4 km/h (2 Bft)
24/05/2017 07:12 12,5 C 12,5 C 12,5 C 12,8 C 97 % 200 cb 1023,9 hPa 0,0 mm 0,0 km/h (0 Bft) N 0 0 min 0,000 mm 0,0 UV-I 32 W/m 12,0 C 12,5 C 0,0 km/h (0 Bft)
24/05/2017 06:12 12,7 C 12,7 C 12,7 C 12,8 C 97 % 200 cb 1023,6 hPa 0,0 mm 0,0 km/h (0 Bft) N 0 0 min 0,000 mm 0,0 UV-I 12 W/m 12,2 C 12,7 C 0,0 km/h (0 Bft)
24/05/2017 05:12 12,5 C 12,5 C 12,5 C 12,8 C 97 % 200 cb 1023,4 hPa 0,0 mm 0,0 km/h (0 Bft) N 0 0 min 0,000 mm 0,0 UV-I 0 W/m 12,0 C 12,5 C 0,0 km/h (0 Bft)
24/05/2017 04:12 11,5 C 11,5 C 11,6 C 11,7 C 93 % 200 cb 1023,4 hPa 0,0 mm 0,0 km/h (0 Bft) N 0 0 min 0,000 mm 0,0 UV-I 0 W/m 10,4 C 11,5 C 0,0 km/h (0 Bft)
24/05/2017 03:12 12,3 C 12,3 C 12,3 C 12,2 C 92 % 200 cb 1023,6 hPa 0,0 mm 0,0 km/h (0 Bft) N 0 0 min 0,000 mm 0,0 UV-I 0 W/m 11,0 C 12,3 C 0,0 km/h (0 Bft)
24/05/2017 02:12 12,8 C 12,8 C 12,8 C 12,8 C 90 % 200 cb 1023,7 hPa 0,0 mm 0,0 km/h (0 Bft) N 0 0 min 0,000 mm 0,0 UV-I 0 W/m 11,2 C 12,8 C 0,0 km/h (0 Bft)
24/05/2017 01:11 13,7 C 13,7 C 13,8 C 13,3 C 86 % 200 cb 1023,5 hPa 0,0 mm 0,0 km/h (0 Bft) N 0 0 min 0,025 mm 0,0 UV-I 0 W/m 11,4 C 13,7 C 0,0 km/h (0 Bft)
24/05/2017 00:11 15,2 C 15,2 C 15,2 C 14,4 C 80 % 200 cb 1023,5 hPa 0,0 mm 0,0 km/h (0 Bft) N 0 0 min 0,025 mm 0,0 UV-I 0 W/m 11,8 C 15,2 C 0,0 km/h (0 Bft)
24/05/2017 00:00 15,7 C 15,7 C 15,7 C 15,0 C 78 % 200 cb 1023,6 hPa 0,0 mm 0,0 km/h (0 Bft) N 0 0 min 0,025 mm 0,0 UV-I 0 W/m 11,9 C 15,7 C 0,0 km/h (0 Bft)
_ Min-Heure 04:19 04:19 04:23 04:03 15:08 00:00 18:42 - 00:00 - - - - - - 04:11 08:08 00:00
Minimum _ 11,4 C 11,4 C 11,4 C 11,1 C 56 % 200 cb 1023,2 hPa - 0,0 km/h (0 Bft) - - - - - - 10,4 C 10,8 C 0,0 km/h (0 Bft)
_ Max-Heure 16:42 16:43 16:42 15:02 07:22 00:00 10:57 00:00 16:10 - - 08:16 13:00 13:31 14:14 12:52 16:47 20:26
Maximum _ 23,3 C 23,3 C 23,3 C 24,4 C 98 % 200 cb 1025,3 hPa 0,0 mm 14,5 km/h
N-NE (3 Bft)
- - 1 min 0,406 mm 6,4 UV-I 1056 W/m 16,7 C 23,3 C 24,1 km/h
N (4 Bft)
Moyenne _ 17,2 C 17,2 C 17,2 C 17,5 C 79 % 200 cb 1024,0 hPa #0,0 mm 3,4 km/h (1 Bft) N - #10:03 h #3,502 mm 2,9 UV-I 234 W/m 13,2 C 17,1 C 5,7 km/h (1 Bft)